Time;durP1;ratioP1;P1;durP2;ratioP2;P2;SDS_P1;SDS_P2;PMS_P1;PMS_P2;Temp;Humidity;BMP_temperature;BMP_pressure;BME280_temperature;BME280_humidity;BME280_pressure;Samples;Min_cycle;Max_cycle;Signal;HPM_P1;HPM_P2
2022/03/31 00:00:32;;;;;;;15.70;12.13;;;8.90;99.90;;;;;;5055921;28;20085;-78
2022/03/31 00:02:59;;;;;;;15.95;12.80;;;8.90;99.90;;;;;;5059595;28;20021;-79
2022/03/31 00:05:25;;;;;;;17.42;11.57;;;8.90;99.90;;;;;;5058968;28;20618;-79
2022/03/31 00:07:59;;;;;;;14.73;11.13;;;8.90;99.90;;;;;;5058812;28;20021;-79
2022/03/31 00:10:31;;;;;;;15.75;12.25;;;9.00;99.90;;;;;;5041619;28;20025;-78
2022/03/31 00:12:58;;;;;;;;;;;9.00;99.90;;;;;;5058942;28;20462;-79
2022/03/31 00:15:26;;;;;;;19.20;13.70;;;8.90;99.90;;;;;;5057929;28;19957;-78
2022/03/31 00:17:53;;;;;;;18.48;12.68;;;8.90;99.90;;;;;;5058421;28;20100;-77
2022/03/31 00:33:47;;;;;;;20.20;13.65;;;8.90;99.90;;;;;;5059396;28;20055;-78
2022/03/31 00:36:13;;;;;;;18.35;13.18;;;8.90;99.90;;;;;;5061066;28;20033;-78
2022/03/31 00:38:39;;;;;;;18.63;14.65;;;8.80;99.90;;;;;;5058821;28;20025;-78
2022/03/31 00:41:04;;;;;;;18.30;13.90;;;8.80;99.90;;;;;;5058992;28;20044;-79
2022/03/31 00:43:30;;;;;;;18.90;14.07;;;8.70;99.90;;;;;;5043016;28;20481;-78
2022/03/31 00:45:58;;;;;;;20.33;14.45;;;8.70;99.90;;;;;;5058531;28;20033;-79
2022/03/31 00:48:24;;;;;;;19.15;14.10;;;8.80;99.90;;;;;;5057576;28;20029;-78
2022/03/31 00:50:50;;;;;;;16.42;13.13;;;8.80;99.90;;;;;;5060139;28;20107;-77
2022/03/31 00:53:17;;;;;;;21.73;15.65;;;8.80;99.90;;;;;;5070919;28;20056;-78
2022/03/31 00:55:45;;;;;;;18.83;15.00;;;8.70;99.90;;;;;;5058070;28;20036;-78
2022/03/31 00:58:12;;;;;;;23.45;15.50;;;8.60;99.90;;;;;;5057179;28;20025;-79
2022/03/31 01:00:38;;;;;;;18.20;14.10;;;8.50;99.90;;;;;;5061884;28;20032;-79
2022/03/31 01:03:04;;;;;;;18.30;13.55;;;8.60;99.90;;;;;;5058775;28;20086;-78
2022/03/31 01:05:30;;;;;;;17.77;14.18;;;8.60;99.90;;;;;;5059773;28;20104;-78
2022/03/31 01:07:56;;;;;;;25.63;18.38;;;8.60;99.90;;;;;;5059737;28;20433;-78
2022/03/31 01:10:22;;;;;;;26.77;18.15;;;8.60;99.90;;;;;;5060822;28;20542;-79
2022/03/31 01:12:49;;;;;;;25.92;18.85;;;8.70;99.90;;;;;;5059709;28;20032;-77
2022/03/31 01:15:14;;;;;;;25.38;18.30;;;8.70;99.90;;;;;;5062340;28;20109;-79
2022/03/31 01:17:43;;;;;;;28.25;17.92;;;8.70;99.90;;;;;;5059530;28;20036;-78
2022/03/31 01:20:12;;;;;;;23.33;17.95;;;8.70;99.90;;;;;;5057775;28;20032;-78
2022/03/31 01:22:38;;;;;;;25.30;16.77;;;8.60;99.90;;;;;;5042071;28;20035;-78
2022/03/31 01:25:06;;;;;;;24.27;17.50;;;8.60;99.90;;;;;;5059978;28;20030;-79
2022/03/31 01:27:35;;;;;;;20.30;15.95;;;8.60;99.90;;;;;;5055988;28;20311;-79
2022/03/31 01:30:01;;;;;;;24.02;17.45;;;8.60;99.90;;;;;;5058800;28;20039;-78
2022/03/31 01:32:27;;;;;;;24.02;17.30;;;8.60;99.90;;;;;;5058513;28;20035;-79
2022/03/31 01:34:54;;;;;;;19.13;15.68;;;8.60;99.90;;;;;;5058761;28;20096;-77
2022/03/31 01:37:20;;;;;;;25.15;17.92;;;8.60;99.90;;;;;;5042799;28;20029;-79
2022/03/31 01:39:45;;;;;;;27.35;18.60;;;8.60;99.90;;;;;;5057498;28;20477;-79
2022/03/31 01:42:12;;;;;;;26.92;19.80;;;8.60;99.90;;;;;;5059818;28;20055;-78
2022/03/31 01:44:38;;;;;;;27.02;19.33;;;8.50;99.90;;;;;;5059331;28;20017;-79
2022/03/31 01:47:04;;;;;;;28.55;19.60;;;8.40;99.90;;;;;;5059827;28;20492;-78
2022/03/31 01:49:30;;;;;;;29.33;20.17;;;8.40;99.90;;;;;;5039114;28;20100;-79
2022/03/31 01:51:56;;;;;;;29.63;21.58;;;8.40;99.90;;;;;;5057430;28;20094;-78
2022/03/31 01:54:22;;;;;;;30.08;20.75;;;8.40;99.90;;;;;;5044424;28;20049;-78
2022/03/31 01:56:48;;;;;;;28.75;19.70;;;8.30;99.90;;;;;;5045264;28;20029;-78
2022/03/31 01:59:14;;;;;;;30.65;21.40;;;8.30;99.90;;;;;;5058592;28;20531;-78
2022/03/31 02:01:40;;;;;;;27.67;19.33;;;8.20;99.90;;;;;;5059157;28;20029;-78
2022/03/31 02:04:06;;;;;;;24.90;17.60;;;8.20;99.90;;;;;;5058593;28;20028;-78
2022/03/31 02:06:31;;;;;;;26.45;18.05;;;8.30;99.90;;;;;;5060737;28;20036;-78
2022/03/31 02:08:57;;;;;;;24.75;18.23;;;8.30;99.90;;;;;;5057100;28;20451;-77
2022/03/31 02:11:24;;;;;;;23.00;16.05;;;8.30;99.90;;;;;;5039888;28;20036;-78
2022/03/31 02:13:49;;;;;;;24.90;18.40;;;8.10;99.90;;;;;;5058707;28;20024;-78
2022/03/31 02:16:15;;;;;;;23.98;17.35;;;8.00;99.90;;;;;;5055899;28;20033;-78
2022/03/31 02:18:41;;;;;;;24.80;17.63;;;7.90;99.90;;;;;;5058136;28;20107;-78
2022/03/31 02:21:07;;;;;;;23.13;17.48;;;7.90;99.90;;;;;;5054157;28;20056;-77
2022/03/31 02:23:33;;;;;;;22.08;16.60;;;7.80;99.90;;;;;;5054260;28;20051;-77
2022/03/31 02:25:58;;;;;;;23.20;17.60;;;7.80;99.90;;;;;;5054331;28;20055;-77
2022/03/31 02:28:24;;;;;;;28.60;19.90;;;7.70;99.90;;;;;;5053538;28;20025;-77
2022/03/31 02:30:50;;;;;;;28.50;20.98;;;7.60;99.90;;;;;;5060133;28;20085;-77
2022/03/31 02:33:16;;;;;;;29.15;21.02;;;7.50;99.90;;;;;;5057145;28;20039;-77
2022/03/31 02:35:42;;;;;;;29.90;20.20;;;7.50;99.90;;;;;;5063658;28;20428;-77
2022/03/31 02:38:07;;;;;;;28.77;20.42;;;7.40;99.90;;;;;;5058275;28;20036;-77
2022/03/31 02:40:33;;;;;;;26.23;18.33;;;7.40;99.90;;;;;;5056027;28;20021;-77
2022/03/31 02:42:59;;;;;;;28.70;20.83;;;7.30;99.90;;;;;;5038388;28;20031;-77
2022/03/31 02:45:25;;;;;;;27.70;18.83;;;7.30;99.90;;;;;;5060358;28;20092;-77
2022/03/31 02:47:50;;;;;;;29.02;19.92;;;7.30;99.90;;;;;;5061290;28;20025;-78
2022/03/31 02:50:17;;;;;;;34.60;21.23;;;7.30;99.90;;;;;;5047047;28;20021;-78
2022/03/31 02:55:29;;;;;;;28.48;19.60;;;7.20;99.90;;;;;;5066302;28;20056;-78
2022/03/31 02:57:57;;;;;;;28.65;19.55;;;7.20;99.90;;;;;;5072433;28;20025;-78
2022/03/31 03:00:23;;;;;;;31.00;21.30;;;7.20;99.90;;;;;;5076773;28;20021;-77
2022/03/31 03:02:49;;;;;;;29.85;20.05;;;7.20;99.90;;;;;;5076514;28;20040;-78
2022/03/31 03:05:15;;;;;;;28.40;20.58;;;7.20;99.90;;;;;;5071366;28;20358;-78
2022/03/31 03:07:41;;;;;;;27.67;19.52;;;7.20;99.90;;;;;;5061916;28;20025;-78
2022/03/31 03:10:06;;;;;;;28.98;20.13;;;7.20;99.90;;;;;;5067339;28;20021;-79
2022/03/31 03:12:32;;;;;;;28.60;20.00;;;7.20;99.90;;;;;;5076725;28;20037;-77
2022/03/31 03:14:58;;;;;;;32.60;20.90;;;7.20;99.90;;;;;;5076003;28;20136;-78
2022/03/31 03:17:23;;;;;;;30.25;20.50;;;7.20;99.90;;;;;;5061644;28;20025;-77
2022/03/31 03:19:49;;;;;;;32.20;20.85;;;7.20;99.90;;;;;;5058970;28;20017;-78
2022/03/31 03:22:15;;;;;;;29.65;20.05;;;7.20;99.90;;;;;;5060623;28;20418;-79
2022/03/31 03:24:41;;;;;;;32.42;22.13;;;7.20;99.90;;;;;;5062033;28;20104;-79
2022/03/31 03:27:07;;;;;;;32.67;21.58;;;7.20;99.90;;;;;;5043145;28;20029;-78
2022/03/31 03:29:32;;;;;;;32.55;22.08;;;7.30;99.90;;;;;;5042630;28;20054;-78
2022/03/31 03:31:58;;;;;;;30.60;20.83;;;7.30;99.90;;;;;;5062394;28;20108;-79
2022/03/31 03:34:25;;;;;;;28.90;20.15;;;7.30;99.90;;;;;;5062647;28;20085;-80
2022/03/31 03:36:51;;;;;;;26.80;19.15;;;7.30;99.90;;;;;;5063314;28;20021;-80
2022/03/31 03:39:16;;;;;;;25.95;18.58;;;7.30;99.90;;;;;;5061647;28;20035;-79
2022/03/31 03:41:42;;;;;;;26.60;17.42;;;7.40;99.90;;;;;;5062157;28;20033;-78
2022/03/31 03:44:08;;;;;;;32.33;22.35;;;7.40;99.90;;;;;;5043685;28;20036;-80
2022/03/31 03:46:34;;;;;;;32.42;22.10;;;7.50;99.90;;;;;;5043914;28;20036;-79
2022/03/31 03:49:00;;;;;;;30.95;20.63;;;7.50;99.90;;;;;;5064379;28;20029;-79
2022/03/31 03:51:26;;;;;;;26.90;19.58;;;7.50;99.90;;;;;;5073809;28;20041;-79
2022/03/31 03:53:52;;;;;;;27.90;19.83;;;7.50;99.90;;;;;;5087739;22;20071;-78
2022/03/31 03:56:19;;;;;;;27.08;19.20;;;7.50;99.90;;;;;;5081659;28;20072;-78
2022/03/31 03:58:45;;;;;;;26.00;17.92;;;7.50;99.90;;;;;;5084892;28;20020;-80
2022/03/31 04:01:11;;;;;;;26.25;18.05;;;7.50;99.90;;;;;;5066610;28;20058;-79
2022/03/31 04:03:36;;;;;;;27.17;18.42;;;7.40;99.90;;;;;;5084286;28;20078;-79
2022/03/31 04:06:02;;;;;;;25.83;17.98;;;7.50;99.90;;;;;;5082577;28;20044;-78
2022/03/31 04:08:28;;;;;;;25.90;17.98;;;7.50;99.90;;;;;;5081478;28;20029;-78
2022/03/31 04:10:54;;;;;;;25.25;17.45;;;7.50;99.90;;;;;;5080845;28;20040;-79
2022/03/31 04:13:20;;;;;;;22.70;16.55;;;7.50;99.90;;;;;;5052104;28;20021;-79
2022/03/31 04:15:46;;;;;;;24.33;16.95;;;7.60;99.90;;;;;;5068183;28;20040;-79
2022/03/31 04:18:12;;;;;;;30.33;19.63;;;7.60;99.90;;;;;;5078166;28;20460;-80
2022/03/31 04:20:37;;;;;;;34.95;21.92;;;7.60;99.90;;;;;;5077385;28;20128;-80
2022/03/31 04:23:04;;;;;;;30.95;20.67;;;7.50;99.90;;;;;;5078368;28;20032;-80
2022/03/31 04:25:30;;;;;;;31.88;20.40;;;7.50;99.90;;;;;;5059822;28;20435;-79
2022/03/31 04:27:55;;;;;;;37.03;23.25;;;7.50;99.90;;;;;;5059914;28;20079;-79
2022/03/31 04:30:21;;;;;;;35.35;22.73;;;7.40;99.90;;;;;;5077602;28;20032;-80
2022/03/31 04:32:48;;;;;;;34.65;22.35;;;7.40;99.90;;;;;;5064998;28;20036;-80
2022/03/31 04:35:15;;;;;;;37.00;22.25;;;7.40;99.90;;;;;;5079880;28;20052;-77
2022/03/31 04:37:41;;;;;;;35.20;22.48;;;7.40;99.90;;;;;;5095366;28;20032;-76
2022/03/31 04:40:08;;;;;;;36.58;22.85;;;7.30;99.90;;;;;;5087718;28;20032;-78
2022/03/31 04:42:34;;;;;;;31.13;21.58;;;7.30;99.90;;;;;;5056278;28;20025;-79
2022/03/31 04:45:02;;;;;;;28.25;19.85;;;7.30;99.90;;;;;;5067283;28;20025;-78
2022/03/31 04:47:31;;;;;;;33.10;21.88;;;7.30;99.90;;;;;;5095984;28;20019;-80
2022/03/31 04:49:57;;;;;;;33.90;21.40;;;7.30;99.90;;;;;;5080166;28;20032;-82
2022/03/31 04:52:23;;;;;;;27.98;19.15;;;7.30;99.90;;;;;;5095868;28;20050;-82
2022/03/31 04:54:49;;;;;;;31.25;20.50;;;7.30;99.90;;;;;;5083475;28;20033;-81
2022/03/31 04:57:18;;;;;;;34.70;22.88;;;7.30;99.90;;;;;;5095064;28;20031;-81
2022/03/31 04:59:45;;;;;;;37.65;22.40;;;7.30;99.90;;;;;;5087185;28;20028;-81
2022/03/31 05:02:12;;;;;;;34.38;22.58;;;7.30;99.90;;;;;;5076681;28;20488;-81
2022/03/31 05:04:38;;;;;;;33.30;21.45;;;7.30;99.90;;;;;;5059024;28;20033;-81
2022/03/31 05:07:04;;;;;;;34.88;22.58;;;7.30;99.90;;;;;;5077082;28;20032;-81
2022/03/31 05:09:30;;;;;;;29.58;20.42;;;7.30;99.90;;;;;;5046975;28;20021;-82
2022/03/31 05:11:55;;;;;;;31.42;20.75;;;7.30;99.90;;;;;;5044668;28;20039;-82
2022/03/31 05:14:24;;;;;;;30.88;19.88;;;7.40;99.90;;;;;;5046534;28;20056;-83
2022/03/31 05:16:50;;;;;;;28.05;18.40;;;7.50;99.90;;;;;;5049703;28;20084;-82
2022/03/31 05:19:16;;;;;;;28.05;18.98;;;7.50;99.90;;;;;;5077300;28;20051;-83
2022/03/31 05:21:42;;;;;;;28.27;18.48;;;7.60;99.90;;;;;;5078071;28;20111;-81
2022/03/31 05:24:07;;;;;;;26.55;17.88;;;7.60;99.90;;;;;;5078752;28;20028;-82
2022/03/31 05:26:33;;;;;;;25.25;17.15;;;7.60;99.90;;;;;;5079070;28;20031;-81
2022/03/31 05:28:59;;;;;;;29.15;18.98;;;7.70;99.90;;;;;;5059672;28;20472;-81
2022/03/31 05:31:25;;;;;;;25.80;18.92;;;7.70;99.90;;;;;;5059979;28;20036;-81
2022/03/31 05:33:51;;;;;;;25.80;17.45;;;7.70;99.90;;;;;;5078754;28;20377;-81
2022/03/31 05:36:16;;;;;;;25.08;18.33;;;7.80;99.90;;;;;;5060449;28;20094;-81
2022/03/31 05:38:42;;;;;;;27.17;18.08;;;7.90;99.90;;;;;;5060181;28;20047;-81
2022/03/31 05:41:08;;;;;;;25.55;18.13;;;7.90;99.90;;;;;;5073172;28;20080;-80
2022/03/31 05:43:33;;;;;;;27.15;18.02;;;7.90;99.90;;;;;;5058326;28;20028;-81
2022/03/31 05:45:59;;;;;;;24.23;17.38;;;8.00;99.90;;;;;;5060495;28;20085;-80
2022/03/31 05:48:25;;;;;;;29.35;17.98;;;8.00;99.90;;;;;;5059761;28;20025;-80
2022/03/31 05:50:51;;;;;;;23.73;16.88;;;8.00;99.90;;;;;;5078928;28;20020;-81
2022/03/31 05:53:16;;;;;;;24.77;17.00;;;8.00;99.90;;;;;;5060778;28;20548;-81
2022/03/31 05:55:43;;;;;;;30.02;19.50;;;8.10;99.90;;;;;;5078866;28;20033;-81
2022/03/31 05:58:09;;;;;;;27.30;18.75;;;8.10;99.90;;;;;;5060985;28;20376;-81
2022/03/31 06:00:35;;;;;;;25.40;18.25;;;8.20;99.90;;;;;;5079089;28;20033;-80
2022/03/31 06:03:01;;;;;;;25.27;17.13;;;8.30;99.90;;;;;;5078673;28;20370;-83
2022/03/31 06:05:26;;;;;;;24.30;16.58;;;8.40;99.90;;;;;;5080127;28;20027;-81
2022/03/31 06:07:52;;;;;;;25.27;17.13;;;8.40;99.90;;;;;;5079353;28;20042;-81
2022/03/31 06:10:19;;;;;;;31.85;21.77;;;8.50;99.90;;;;;;5079103;28;20451;-81
2022/03/31 06:12:45;;;;;;;28.15;20.10;;;8.40;99.90;;;;;;5057849;28;20025;-82
2022/03/31 06:15:12;;;;;;;30.35;20.65;;;8.40;99.90;;;;;;5060502;28;20040;-82
2022/03/31 06:17:41;;;;;;;26.73;18.63;;;8.40;99.90;;;;;;5064610;28;20029;-81
2022/03/31 06:20:08;;;;;;;25.83;17.92;;;8.50;99.90;;;;;;5062561;28;20040;-81
2022/03/31 06:22:34;;;;;;;24.25;17.50;;;8.60;99.90;;;;;;5062294;28;20056;-80
2022/03/31 06:25:00;;;;;;;26.30;16.90;;;8.70;99.90;;;;;;5060138;28;20028;-82
2022/03/31 06:27:26;;;;;;;32.95;21.27;;;8.70;99.90;;;;;;5060950;28;20036;-81
2022/03/31 06:29:52;;;;;;;31.75;20.98;;;8.70;99.90;;;;;;5077884;28;20061;-81
2022/03/31 06:32:18;;;;;;;35.67;22.48;;;8.60;99.90;;;;;;5077382;28;20029;-80
2022/03/31 06:34:44;;;;;;;31.00;22.25;;;8.50;99.90;;;;;;5058361;28;20056;-84
2022/03/31 06:37:11;;;;;;;28.05;19.77;;;8.60;99.90;;;;;;5076162;28;20064;-80
2022/03/31 06:39:45;;;;;;;31.08;21.15;;;8.60;99.90;;;;;;5070449;28;20094;-82
2022/03/31 06:42:14;;;;;;;29.60;20.02;;;8.60;99.90;;;;;;5081287;28;20028;-83
2022/03/31 06:44:40;;;;;;;33.92;22.45;;;8.60;99.90;;;;;;5068533;28;20036;-82
2022/03/31 06:47:05;;;;;;;34.30;23.67;;;8.60;99.90;;;;;;5091287;28;20036;-81
2022/03/31 06:49:31;;;;;;;38.35;23.80;;;8.60;99.90;;;;;;5084770;28;20079;-83
2022/03/31 06:51:57;;;;;;;32.30;21.67;;;8.60;99.90;;;;;;5052154;28;20112;-83
2022/03/31 06:54:23;;;;;;;29.30;20.83;;;8.70;99.90;;;;;;5059153;28;20367;-83
2022/03/31 06:56:51;;;;;;;29.90;21.90;;;8.80;99.90;;;;;;5078603;28;20159;-83
2022/03/31 06:59:20;;;;;;;32.40;22.65;;;8.90;99.90;;;;;;5081174;28;20377;-82
2022/03/31 07:01:47;;;;;;;29.13;21.15;;;9.00;99.90;;;;;;5078609;28;20043;-82
2022/03/31 07:04:14;;;;;;;28.30;20.80;;;9.00;99.90;;;;;;5059735;28;20028;-82
2022/03/31 07:06:39;;;;;;;28.90;19.67;;;9.10;99.90;;;;;;5077687;28;20063;-83
2022/03/31 07:09:08;;;;;;;34.05;24.35;;;9.20;99.90;;;;;;5077341;28;20465;-83
2022/03/31 07:11:34;;;;;;;32.17;23.48;;;9.30;99.90;;;;;;5054994;28;20024;-83
2022/03/31 07:14:04;;;;;;;31.60;21.17;;;9.40;99.90;;;;;;5076703;28;20048;-83
2022/03/31 07:16:31;;;;;;;30.50;21.90;;;9.40;99.90;;;;;;5080172;28;20039;-82
2022/03/31 07:18:58;;;;;;;32.40;21.88;;;9.60;99.90;;;;;;5079960;28;20433;-82
2022/03/31 07:21:25;;;;;;;32.35;23.35;;;9.70;99.90;;;;;;5062451;28;20100;-81
2022/03/31 07:23:54;;;;;;;30.85;21.58;;;9.80;99.90;;;;;;5064459;28;20044;-83
2022/03/31 07:26:22;;;;;;;26.75;19.65;;;9.80;99.90;;;;;;5080999;28;20021;-82
2022/03/31 07:28:48;;;;;;;32.40;22.00;;;9.90;99.90;;;;;;5083196;28;20112;-82
2022/03/31 07:31:17;;;;;;;37.70;24.23;;;9.80;99.90;;;;;;5081815;28;20021;-82
2022/03/31 07:33:43;;;;;;;27.73;21.20;;;9.80;99.90;;;;;;5082245;28;20388;-83
2022/03/31 07:36:09;;;;;;;28.23;21.33;;;9.70;99.90;;;;;;5080904;28;20021;-83
2022/03/31 07:38:35;;;;;;;31.55;21.42;;;9.70;99.90;;;;;;5062950;28;20097;-83
2022/03/31 07:41:01;;;;;;;37.38;23.80;;;9.70;99.90;;;;;;5060128;28;20029;-84
2022/03/31 07:43:27;;;;;;;33.33;23.77;;;9.70;99.90;;;;;;5061419;28;20101;-83
2022/03/31 07:45:53;;;;;;;27.80;21.35;;;9.70;99.90;;;;;;5073716;28;20044;-83
2022/03/31 07:48:19;;;;;;;31.42;23.10;;;9.80;99.90;;;;;;5081190;28;20035;-85
2022/03/31 07:50:45;;;;;;;34.25;24.10;;;10.00;99.90;;;;;;5080962;28;20013;-83
2022/03/31 07:53:11;;;;;;;37.10;24.85;;;10.00;99.40;;;;;;5081302;28;20102;-84
2022/03/31 07:55:38;;;;;;;36.92;25.33;;;10.00;99.10;;;;;;5082124;28;20024;-83
2022/03/31 07:58:05;;;;;;;40.78;24.80;;;10.00;98.90;;;;;;5081013;28;20013;-82
2022/03/31 08:00:31;;;;;;;36.83;25.63;;;10.10;99.10;;;;;;5081509;28;20013;-82
2022/03/31 08:02:58;;;;;;;34.22;23.23;;;10.20;99.00;;;;;;5063644;28;20028;-82
2022/03/31 08:05:27;;;;;;;32.40;21.95;;;10.40;98.50;;;;;;5080979;28;20517;-83
2022/03/31 08:07:54;;;;;;;33.53;24.67;;;10.60;98.00;;;;;;5080679;28;20039;-84
2022/03/31 08:10:21;;;;;;;39.10;23.35;;;10.80;96.90;;;;;;5081573;28;20034;-82
2022/03/31 08:12:47;;;;;;;34.13;23.38;;;11.00;96.20;;;;;;5067511;28;20045;-82
2022/03/31 08:15:15;;;;;;;35.90;24.88;;;11.30;95.70;;;;;;5077321;28;20357;-84
2022/03/31 08:17:42;;;;;;;30.13;21.73;;;11.40;94.00;;;;;;5080083;28;20031;-83
2022/03/31 08:20:12;;;;;;;32.53;22.50;;;11.50;94.30;;;;;;5065784;28;20028;-83
2022/03/31 08:22:42;;;;;;;30.58;20.95;;;11.70;93.80;;;;;;5092135;28;20043;-82
2022/03/31 08:25:10;;;;;;;29.58;19.95;;;11.90;93.30;;;;;;5077861;28;20032;-83
2022/03/31 08:27:38;;;;;;;27.73;20.63;;;12.10;93.00;;;;;;5093748;28;20032;-84
2022/03/31 08:30:08;;;;;;;28.75;21.52;;;12.50;91.70;;;;;;5093858;28;20024;-81
2022/03/31 08:32:36;;;;;;;26.35;19.40;;;12.50;89.40;;;;;;5090688;28;20040;-83
2022/03/31 08:35:06;;;;;;;27.25;18.95;;;12.20;90.60;;;;;;5086086;28;20074;-83
2022/03/31 08:37:32;;;;;;;28.10;19.77;;;12.20;90.90;;;;;;5084303;28;20020;-82
2022/03/31 08:40:01;;;;;;;25.40;19.02;;;12.20;90.60;;;;;;5087892;28;20044;-82
2022/03/31 08:42:26;;;;;;;26.27;19.60;;;12.10;90.60;;;;;;5049583;28;20052;-82
2022/03/31 08:44:55;;;;;;;26.08;18.40;;;12.10;89.80;;;;;;5059476;28;20497;-82
2022/03/31 08:47:22;;;;;;;25.80;18.73;;;12.00;89.80;;;;;;5086694;28;20059;-83
2022/03/31 08:49:48;;;;;;;22.17;16.08;;;11.90;89.80;;;;;;5085333;28;20443;-83
2022/03/31 08:52:14;;;;;;;18.90;14.93;;;11.90;90.40;;;;;;5075389;28;20093;-82
2022/03/31 08:54:41;;;;;;;18.35;13.75;;;12.10;90.20;;;;;;5063343;28;20131;-83
2022/03/31 08:57:07;;;;;;;16.25;12.60;;;12.40;89.40;;;;;;5085132;28;20036;-82
2022/03/31 08:59:33;;;;;;;13.15;11.13;;;12.60;87.80;;;;;;5081855;28;20024;-80
2022/03/31 09:01:59;;;;;;;16.75;13.30;;;12.90;86.50;;;;;;5081482;28;20033;-84
2022/03/31 09:04:28;;;;;;;17.70;13.27;;;13.00;85.30;;;;;;5062488;28;20094;-84
2022/03/31 09:07:06;;;;;;;16.80;13.23;;;13.10;84.50;;;;;;5080228;28;20071;-85
2022/03/31 09:09:43;;;;;;;16.70;12.75;;;13.40;84.00;;;;;;5062916;28;20028;-83
2022/03/31 09:12:08;;;;;;;29.10;18.33;;;13.60;82.10;;;;;;5069097;28;20065;-83
2022/03/31 09:14:37;;;;;;;24.20;17.63;;;13.50;79.50;;;;;;5079356;28;20090;-83
2022/03/31 09:17:14;;;;;;;27.20;18.13;;;13.20;81.00;;;;;;5071779;28;20430;-83
2022/03/31 09:19:43;;;;;;;22.30;17.00;;;12.90;82.30;;;;;;5087771;28;20070;-82
2022/03/31 09:22:09;;;;;;;22.95;16.30;;;12.60;82.60;;;;;;5085450;28;20155;-83
2022/03/31 09:24:35;;;;;;;23.63;15.75;;;12.60;83.80;;;;;;5083467;28;20086;-83
2022/03/31 09:27:03;;;;;;;22.73;15.95;;;12.70;84.00;;;;;;5064510;28;20092;-83
2022/03/31 09:29:31;;;;;;;28.85;18.63;;;12.70;83.10;;;;;;5080593;28;20020;-83
2022/03/31 09:32:13;;;;;;;26.67;18.83;;;12.50;83.00;;;;;;5083215;28;20036;-83
2022/03/31 09:34:45;;;;;;;29.27;19.45;;;12.30;83.00;;;;;;5065193;28;20024;-83
2022/03/31 09:37:17;;;;;;;28.35;21.45;;;12.10;84.80;;;;;;5081622;28;20025;-84
2022/03/31 09:39:53;;;;;;;;;;;11.90;85.80;;;;;;5083768;28;20107;-85
2022/03/31 09:42:18;;;;;;;25.52;17.65;;;11.80;87.30;;;;;;5055352;28;19905;-83
2022/03/31 09:44:55;;;;;;;22.55;17.33;;;11.90;88.10;;;;;;5062147;28;20028;-83
2022/03/31 09:47:20;;;;;;;18.70;14.80;;;12.00;87.60;;;;;;5081079;28;20025;-83
2022/03/31 09:49:55;;;;;;;25.95;17.05;;;12.10;87.20;;;;;;5079847;28;20056;-84
2022/03/31 09:52:22;;;;;;;26.70;19.65;;;12.30;86.00;;;;;;5080749;28;20063;-82
2022/03/31 09:54:49;;;;;;;31.75;21.25;;;12.30;85.10;;;;;;5079201;28;20028;-82
2022/03/31 09:57:20;;;;;;;34.28;21.35;;;12.10;84.30;;;;;;5061774;28;20024;-82
2022/03/31 09:59:50;;;;;;;31.08;20.38;;;11.80;85.60;;;;;;5060873;28;20020;-82
2022/03/31 10:02:17;;;;;;;29.65;21.40;;;11.50;86.80;;;;;;5079207;28;20029;-82
2022/03/31 10:04:46;;;;;;;31.70;20.63;;;11.30;87.50;;;;;;5089394;28;20072;-82
2022/03/31 10:07:13;;;;;;;27.73;19.98;;;11.30;88.10;;;;;;5078801;28;20096;-81
2022/03/31 10:09:42;;;;;;;27.60;19.10;;;11.40;87.30;;;;;;5077914;28;20044;-83
2022/03/31 10:12:23;;;;;;;25.98;17.92;;;11.40;87.90;;;;;;5076297;28;20037;-82
2022/03/31 10:14:52;;;;;;;29.75;19.77;;;11.70;88.10;;;;;;5062245;28;20017;-82
2022/03/31 10:17:25;;;;;;;27.83;20.08;;;11.90;85.30;;;;;;5080676;28;20039;-81
2022/03/31 10:19:50;;;;;;;26.42;18.83;;;12.00;85.30;;;;;;5061936;28;20528;-82
2022/03/31 10:25:06;;;;;;;24.77;17.98;;;11.80;85.60;;;;;;5086455;28;20031;-83
2022/03/31 10:27:40;;;;;;;23.42;16.15;;;11.60;86.80;;;;;;5089718;28;20027;-83
2022/03/31 10:30:25;;;;;;;23.10;17.02;;;11.70;87.20;;;;;;5084868;28;20032;-82
2022/03/31 10:32:56;;;;;;;25.85;17.30;;;12.00;87.00;;;;;;5069043;28;20020;-82
2022/03/31 10:35:25;;;;;;;23.17;17.23;;;12.10;84.70;;;;;;5074696;28;20056;-83
2022/03/31 10:37:51;;;;;;;21.88;15.75;;;12.10;84.90;;;;;;5074226;28;20273;-83
2022/03/31 10:40:42;;;;;;;26.48;18.73;;;12.20;84.60;;;;;;5075243;28;20025;-84
2022/03/31 10:43:25;;;;;;;25.35;18.88;;;12.40;82.80;;;;;;5063778;28;20021;-84
2022/03/31 10:45:54;;;;;;;22.75;16.65;;;12.50;81.80;;;;;;5075636;28;20032;-82
2022/03/31 10:48:33;;;;;;;20.00;15.52;;;12.60;82.40;;;;;;5062805;28;20028;-83
2022/03/31 10:51:06;;;;;;;24.48;15.45;;;12.50;82.70;;;;;;5083608;28;20154;-84
2022/03/31 10:53:35;;;;;;;25.70;17.52;;;12.50;83.00;;;;;;5067945;28;20024;-84
2022/03/31 10:56:02;;;;;;;22.67;16.70;;;12.60;81.40;;;;;;5085353;28;20020;-84
2022/03/31 10:58:31;;;;;;;19.40;14.38;;;12.50;82.00;;;;;;5085165;28;20086;-83
2022/03/31 11:01:01;;;;;;;19.15;13.82;;;12.60;82.80;;;;;;5085483;28;20020;-83
2022/03/31 11:03:27;;;;;;;17.40;12.73;;;12.70;81.70;;;;;;5066322;28;20044;-83
2022/03/31 11:05:56;;;;;;;17.13;13.07;;;12.90;81.20;;;;;;5084272;28;20031;-84
2022/03/31 11:08:22;;;;;;;20.98;15.45;;;13.00;79.40;;;;;;5075532;28;20058;-83
2022/03/31 11:10:50;;;;;;;18.70;13.23;;;13.00;79.10;;;;;;5093141;28;20618;-83
2022/03/31 11:13:18;;;;;;;18.83;14.32;;;13.20;79.50;;;;;;5059198;28;20362;-83
2022/03/31 11:15:47;;;;;;;20.20;14.98;;;13.40;78.80;;;;;;5064140;28;20103;-83
2022/03/31 11:18:13;;;;;;;22.65;15.63;;;13.40;77.80;;;;;;5063851;28;20032;-84
2022/03/31 11:20:39;;;;;;;17.98;14.15;;;13.30;78.50;;;;;;5082640;28;20013;-83
2022/03/31 11:23:09;;;;;;;17.27;12.90;;;13.30;78.60;;;;;;5063312;28;20392;-85
2022/03/31 11:25:35;;;;;;;23.38;16.20;;;13.20;78.10;;;;;;5082105;28;20037;-83
2022/03/31 11:28:12;;;;;;;21.95;15.07;;;13.10;78.40;;;;;;5082181;28;20029;-83
2022/03/31 11:30:39;;;;;;;21.33;14.75;;;13.10;79.20;;;;;;5083856;28;20038;-84
2022/03/31 11:33:09;;;;;;;20.90;14.65;;;13.30;78.60;;;;;;5065590;28;20103;-82
2022/03/31 11:35:35;;;;;;;15.63;12.50;;;13.30;78.30;;;;;;5085452;28;20123;-83
2022/03/31 11:38:04;;;;;;;17.65;13.90;;;13.30;78.00;;;;;;5087022;28;20095;-83
2022/03/31 11:40:36;;;;;;;16.02;11.80;;;13.30;78.00;;;;;;5069803;28;20040;-83
2022/03/31 11:43:08;;;;;;;22.50;16.42;;;13.40;78.10;;;;;;5062058;28;20151;-84
2022/03/31 11:45:39;;;;;;;26.17;18.40;;;13.40;77.50;;;;;;5074541;28;20032;-83
2022/03/31 11:48:06;;;;;;;27.75;19.80;;;13.10;77.30;;;;;;5081300;28;20051;-82
2022/03/31 11:50:34;;;;;;;27.80;19.90;;;12.80;78.80;;;;;;5064816;28;20361;-82
2022/03/31 11:53:00;;;;;;;25.98;19.48;;;12.50;79.30;;;;;;5081869;28;20028;-83
2022/03/31 11:55:27;;;;;;;24.40;17.73;;;12.20;81.40;;;;;;5064289;28;20028;-83
2022/03/31 11:57:56;;;;;;;24.65;17.90;;;12.20;82.80;;;;;;5063962;28;20016;-84
2022/03/31 12:00:24;;;;;;;27.42;18.92;;;12.30;82.30;;;;;;5083094;28;20029;-84
2022/03/31 12:03:01;;;;;;;24.48;18.48;;;12.50;82.40;;;;;;5081956;28;20025;-81
2022/03/31 12:05:28;;;;;;;24.15;17.83;;;12.40;82.20;;;;;;5081948;28;20031;-82
2022/03/31 12:07:54;;;;;;;24.42;17.42;;;12.50;82.30;;;;;;5062381;28;20120;-84
2022/03/31 12:10:21;;;;;;;27.50;18.27;;;12.50;82.10;;;;;;5082279;28;20029;-84
2022/03/31 12:12:48;;;;;;;20.55;15.95;;;12.60;81.20;;;;;;5077200;28;20065;-84
2022/03/31 12:15:23;;;;;;;24.42;16.92;;;12.70;81.50;;;;;;5064547;28;20025;-83
2022/03/31 12:18:16;;;;;;;26.20;16.52;;;12.80;81.10;;;;;;5079780;28;20061;-83
2022/03/31 12:20:43;;;;;;;25.15;17.67;;;12.90;80.80;;;;;;5079027;28;20535;-83
2022/03/31 12:23:20;;;;;;;27.80;17.17;;;12.90;79.30;;;;;;5063977;28;20027;-83
2022/03/31 12:25:46;;;;;;;24.77;15.90;;;12.90;80.30;;;;;;5081796;28;20099;-84
2022/03/31 12:28:12;;;;;;;25.75;15.60;;;13.10;80.00;;;;;;5081447;28;20393;-81
2022/03/31 12:30:42;;;;;;;20.20;14.15;;;13.40;78.60;;;;;;5082457;28;20058;-83
2022/03/31 12:33:28;;;;;;;22.10;15.80;;;13.60;78.10;;;;;;5088210;28;20526;-82
2022/03/31 12:36:02;;;;;;;26.48;17.17;;;13.60;77.10;;;;;;5071053;28;20048;-82
2022/03/31 12:38:32;;;;;;;26.10;16.40;;;13.30;77.00;;;;;;5086209;28;20024;-82
2022/03/31 12:40:59;;;;;;;20.58;13.32;;;13.00;78.00;;;;;;5064908;28;20117;-82
2022/03/31 12:43:25;;;;;;;23.92;14.77;;;12.90;79.60;;;;;;5069617;28;20021;-82
2022/03/31 12:45:52;;;;;;;22.10;13.88;;;13.10;78.70;;;;;;5076256;28;20021;-82
2022/03/31 12:48:19;;;;;;;20.25;14.50;;;13.40;76.80;;;;;;5088161;28;20025;-83
2022/03/31 12:50:45;;;;;;;19.80;13.48;;;13.50;73.60;;;;;;5067448;28;20575;-83
2022/03/31 12:53:11;;;;;;;17.42;11.25;;;13.30;75.00;;;;;;5084457;28;20025;-83